Main page
METAR-TAF:

METAR-TAF

Airports :

Isfahan International Airport

Esfahān, Iran

latitude: 32-28N, longitude: 051-43E, elevation: 1590 m

Current weather observation

The report was made 28 minutes ago, at 09:00 UTC
Wind 6 kt from the South/Southwest
Temperature 35°C
Humidity 9%
Pressure 1017 hPa
Visibility 10 km or more
no clouds below 1500 m and no cumulonimbus

METAR: OIFM 170900Z 21006KT CAVOK 35/M03 Q1016 A3002

Time: 13:58 (09:28 UTC)

Forecast

The report was made 4 hours and 28 minutes ago, at 05:00 UTC
Forecast valid from 17 at 06 UTC to 18 at 12 UTC
Wind 6 kt from the East
Visibility: 8000 m
Temporary
from 17 at 12 UTC to 17 at 16 UTC
Wind 16 kt from the North/Northeast
Temporary
from 18 at 00 UTC to 18 at 06 UTC
Visibility: 4000 m
haze

TAF: OIFM 170500Z 1706/1812 09003MPS 8000 NSC TEMPO 1712/1716 03008MPS TEMPO 1800/1806 4000 HZ

Weather observations and forecasts of more than 4000 airports (METAR and TAF reports).

The available stations are represented by yellow and red dots on the map.

Hover mouse over dot to see the name of the station.

Then click to see weather observations and forecasts.

To change the map : click on the green buttons with a black cross to zoom in, on the green button with a dash to zoom out, or on the green arrows for adjacent maps.


METAR-TAF: